sensor_id;sensor_type;location;lat;lon;timestamp;P1;durP1;ratioP1;P2;durP2;ratioP2
65368;SDS011;51970;53.484;49.488;2022-09-09T00:02:23;5.22;;;2.83;;
65368;SDS011;51970;53.484;49.488;2022-09-09T00:04:59;4.93;;;2.28;;
65368;SDS011;51970;53.484;49.488;2022-09-09T00:07:51;5.07;;;2.28;;
65368;SDS011;51970;53.484;49.488;2022-09-09T00:10:36;5.95;;;3.60;;
65368;SDS011;51970;53.484;49.488;2022-09-09T00:13:25;4.90;;;2.55;;
65368;SDS011;51970;53.484;49.488;2022-09-09T00:16:35;3.55;;;1.63;;
65368;SDS011;51970;53.484;49.488;2022-09-09T00:25:31;6.38;;;2.30;;
65368;SDS011;51970;53.484;49.488;2022-09-09T00:27:59;5.43;;;2.42;;
65368;SDS011;51970;53.484;49.488;2022-09-09T00:30:31;6.15;;;2.33;;
65368;SDS011;51970;53.484;49.488;2022-09-09T00:33:10;8.05;;;2.70;;
65368;SDS011;51970;53.484;49.488;2022-09-09T00:35:47;6.47;;;2.30;;
65368;SDS011;51970;53.484;49.488;2022-09-09T00:44:20;6.20;;;2.10;;
65368;SDS011;51970;53.484;49.488;2022-09-09T00:47:12;5.82;;;2.53;;
65368;SDS011;51970;53.484;49.488;2022-09-09T00:50:03;4.85;;;3.03;;
65368;SDS011;51970;53.484;49.488;2022-09-09T00:55:43;9.32;;;2.17;;
65368;SDS011;51970;53.484;49.488;2022-09-09T00:58:16;5.00;;;2.42;;
65368;SDS011;51970;53.484;49.488;2022-09-09T01:00:51;9.23;;;3.13;;
65368;SDS011;51970;53.484;49.488;2022-09-09T01:06:16;5.88;;;4.13;;
65368;SDS011;51970;53.484;49.488;2022-09-09T01:11:38;5.50;;;2.55;;
65368;SDS011;51970;53.484;49.488;2022-09-09T01:17:22;8.75;;;3.47;;
65368;SDS011;51970;53.484;49.488;2022-09-09T01:22:57;5.22;;;2.75;;
65368;SDS011;51970;53.484;49.488;2022-09-09T01:28:19;5.90;;;2.63;;
65368;SDS011;51970;53.484;49.488;2022-09-09T01:30:56;4.93;;;2.15;;
65368;SDS011;51970;53.484;49.488;2022-09-09T01:33:29;6.45;;;2.45;;
65368;SDS011;51970;53.484;49.488;2022-09-09T01:38:39;5.50;;;3.55;;
65368;SDS011;51970;53.484;49.488;2022-09-09T01:41:11;4.97;;;2.63;;
65368;SDS011;51970;53.484;49.488;2022-09-09T01:43:42;5.30;;;1.88;;
65368;SDS011;51970;53.484;49.488;2022-09-09T01:46:13;6.30;;;2.00;;
65368;SDS011;51970;53.484;49.488;2022-09-09T01:48:46;5.53;;;2.50;;
65368;SDS011;51970;53.484;49.488;2022-09-09T01:51:18;5.07;;;2.15;;
65368;SDS011;51970;53.484;49.488;2022-09-09T01:53:49;6.22;;;2.63;;
65368;SDS011;51970;53.484;49.488;2022-09-09T02:03:57;6.30;;;2.60;;
65368;SDS011;51970;53.484;49.488;2022-09-09T02:06:35;5.68;;;2.78;;
65368;SDS011;51970;53.484;49.488;2022-09-09T02:09:10;5.40;;;2.38;;
65368;SDS011;51970;53.484;49.488;2022-09-09T02:11:43;5.95;;;2.92;;
65368;SDS011;51970;53.484;49.488;2022-09-09T02:14:20;7.40;;;2.17;;
65368;SDS011;51970;53.484;49.488;2022-09-09T02:17:03;5.80;;;2.85;;
65368;SDS011;51970;53.484;49.488;2022-09-09T02:19:45;6.25;;;3.28;;
65368;SDS011;51970;53.484;49.488;2022-09-09T02:22:20;5.82;;;3.05;;
65368;SDS011;51970;53.484;49.488;2022-09-09T02:24:55;6.13;;;2.70;;
65368;SDS011;51970;53.484;49.488;2022-09-09T02:27:29;5.15;;;2.30;;
65368;SDS011;51970;53.484;49.488;2022-09-09T02:30:00;7.85;;;2.83;;
65368;SDS011;51970;53.484;49.488;2022-09-09T02:32:34;8.65;;;3.38;;
65368;SDS011;51970;53.484;49.488;2022-09-09T02:35:09;6.10;;;2.25;;
65368;SDS011;51970;53.484;49.488;2022-09-09T02:37:44;5.75;;;3.00;;
65368;SDS011;51970;53.484;49.488;2022-09-09T02:40:18;9.90;;;2.55;;
65368;SDS011;51970;53.484;49.488;2022-09-09T02:42:50;6.78;;;3.15;;
65368;SDS011;51970;53.484;49.488;2022-09-09T02:45:25;6.60;;;3.20;;
65368;SDS011;51970;53.484;49.488;2022-09-09T02:48:14;6.53;;;3.47;;
65368;SDS011;51970;53.484;49.488;2022-09-09T02:50:55;6.28;;;3.85;;
65368;SDS011;51970;53.484;49.488;2022-09-09T02:56:46;10.07;;;3.35;;
65368;SDS011;51970;53.484;49.488;2022-09-09T03:01:55;6.40;;;3.08;;
65368;SDS011;51970;53.484;49.488;2022-09-09T03:04:26;7.53;;;3.25;;
65368;SDS011;51970;53.484;49.488;2022-09-09T03:06:58;6.75;;;3.22;;
65368;SDS011;51970;53.484;49.488;2022-09-09T03:09:30;8.10;;;3.42;;
65368;SDS011;51970;53.484;49.488;2022-09-09T03:12:01;10.23;;;4.32;;
65368;SDS011;51970;53.484;49.488;2022-09-09T03:14:34;7.43;;;3.80;;
65368;SDS011;51970;53.484;49.488;2022-09-09T03:17:06;7.93;;;4.03;;
65368;SDS011;51970;53.484;49.488;2022-09-09T03:19:37;6.35;;;3.03;;
65368;SDS011;51970;53.484;49.488;2022-09-09T03:22:09;9.50;;;2.47;;
65368;SDS011;51970;53.484;49.488;2022-09-09T03:24:41;6.50;;;3.50;;
65368;SDS011;51970;53.484;49.488;2022-09-09T03:27:13;8.25;;;4.18;;
65368;SDS011;51970;53.484;49.488;2022-09-09T03:29:45;6.13;;;3.13;;
65368;SDS011;51970;53.484;49.488;2022-09-09T03:32:17;7.10;;;3.90;;
65368;SDS011;51970;53.484;49.488;2022-09-09T03:34:48;8.50;;;3.83;;
65368;SDS011;51970;53.484;49.488;2022-09-09T03:37:22;9.45;;;3.13;;
65368;SDS011;51970;53.484;49.488;2022-09-09T03:39:54;7.15;;;3.28;;
65368;SDS011;51970;53.484;49.488;2022-09-09T03:42:25;6.50;;;4.03;;
65368;SDS011;51970;53.484;49.488;2022-09-09T03:44:56;6.57;;;3.75;;
65368;SDS011;51970;53.484;49.488;2022-09-09T03:50:00;7.10;;;3.03;;
65368;SDS011;51970;53.484;49.488;2022-09-09T03:52:33;8.45;;;4.00;;
65368;SDS011;51970;53.484;49.488;2022-09-09T03:55:06;6.72;;;3.35;;
65368;SDS011;51970;53.484;49.488;2022-09-09T03:57:38;6.35;;;2.78;;
65368;SDS011;51970;53.484;49.488;2022-09-09T04:02:41;8.27;;;3.47;;
65368;SDS011;51970;53.484;49.488;2022-09-09T04:05:14;7.97;;;4.13;;
65368;SDS011;51970;53.484;49.488;2022-09-09T04:07:46;7.57;;;4.40;;
65368;SDS011;51970;53.484;49.488;2022-09-09T04:10:17;8.25;;;4.40;;
65368;SDS011;51970;53.484;49.488;2022-09-09T04:12:49;8.50;;;3.75;;
65368;SDS011;51970;53.484;49.488;2022-09-09T04:17:51;8.57;;;3.97;;
65368;SDS011;51970;53.484;49.488;2022-09-09T04:20:23;18.52;;;3.90;;
65368;SDS011;51970;53.484;49.488;2022-09-09T04:25:25;8.30;;;4.10;;
65368;SDS011;51970;53.484;49.488;2022-09-09T04:27:57;9.48;;;3.67;;
65368;SDS011;51970;53.484;49.488;2022-09-09T04:30:28;12.75;;;3.50;;
65368;SDS011;51970;53.484;49.488;2022-09-09T04:33:00;9.40;;;4.03;;
65368;SDS011;51970;53.484;49.488;2022-09-09T04:35:31;7.43;;;3.63;;
65368;SDS011;51970;53.484;49.488;2022-09-09T04:40:34;8.93;;;3.45;;
65368;SDS011;51970;53.484;49.488;2022-09-09T04:45:37;7.88;;;3.88;;
65368;SDS011;51970;53.484;49.488;2022-09-09T04:48:10;8.00;;;3.92;;
65368;SDS011;51970;53.484;49.488;2022-09-09T04:50:41;6.75;;;3.40;;
65368;SDS011;51970;53.484;49.488;2022-09-09T04:53:12;13.82;;;4.00;;
65368;SDS011;51970;53.484;49.488;2022-09-09T04:55:44;7.53;;;3.20;;
65368;SDS011;51970;53.484;49.488;2022-09-09T04:58:15;8.88;;;3.92;;
65368;SDS011;51970;53.484;49.488;2022-09-09T05:00:46;8.02;;;3.67;;
65368;SDS011;51970;53.484;49.488;2022-09-09T05:03:17;7.95;;;3.63;;
65368;SDS011;51970;53.484;49.488;2022-09-09T05:05:50;8.50;;;3.80;;
65368;SDS011;51970;53.484;49.488;2022-09-09T05:08:21;10.57;;;3.45;;
65368;SDS011;51970;53.484;49.488;2022-09-09T05:10:53;13.50;;;3.78;;
65368;SDS011;51970;53.484;49.488;2022-09-09T05:13:26;7.38;;;2.97;;
65368;SDS011;51970;53.484;49.488;2022-09-09T05:15:58;9.57;;;3.10;;
65368;SDS011;51970;53.484;49.488;2022-09-09T05:18:29;6.15;;;2.58;;
65368;SDS011;51970;53.484;49.488;2022-09-09T05:21:00;10.23;;;2.90;;
65368;SDS011;51970;53.484;49.488;2022-09-09T05:23:33;7.40;;;3.05;;
65368;SDS011;51970;53.484;49.488;2022-09-09T05:26:05;7.28;;;2.90;;
65368;SDS011;51970;53.484;49.488;2022-09-09T05:28:38;6.90;;;2.15;;
65368;SDS011;51970;53.484;49.488;2022-09-09T05:31:09;6.03;;;3.22;;
65368;SDS011;51970;53.484;49.488;2022-09-09T05:33:44;8.82;;;2.28;;
65368;SDS011;51970;53.484;49.488;2022-09-09T05:36:19;10.60;;;3.53;;
65368;SDS011;51970;53.484;49.488;2022-09-09T05:38:52;6.80;;;2.72;;
65368;SDS011;51970;53.484;49.488;2022-09-09T05:41:24;10.07;;;2.58;;
65368;SDS011;51970;53.484;49.488;2022-09-09T05:43:55;6.60;;;2.65;;
65368;SDS011;51970;53.484;49.488;2022-09-09T05:48:58;15.57;;;2.63;;
65368;SDS011;51970;53.484;49.488;2022-09-09T05:51:29;5.68;;;1.90;;
65368;SDS011;51970;53.484;49.488;2022-09-09T05:54:00;8.15;;;2.88;;
65368;SDS011;51970;53.484;49.488;2022-09-09T05:56:32;7.32;;;2.75;;
65368;SDS011;51970;53.484;49.488;2022-09-09T05:59:03;6.93;;;2.78;;
65368;SDS011;51970;53.484;49.488;2022-09-09T06:01:35;5.85;;;2.92;;
65368;SDS011;51970;53.484;49.488;2022-09-09T06:04:10;13.85;;;2.80;;
65368;SDS011;51970;53.484;49.488;2022-09-09T06:06:42;6.43;;;2.20;;
65368;SDS011;51970;53.484;49.488;2022-09-09T06:09:14;6.13;;;2.53;;
65368;SDS011;51970;53.484;49.488;2022-09-09T06:11:46;6.30;;;2.97;;
65368;SDS011;51970;53.484;49.488;2022-09-09T06:14:17;4.95;;;2.55;;
65368;SDS011;51970;53.484;49.488;2022-09-09T06:16:48;5.30;;;2.40;;
65368;SDS011;51970;53.484;49.488;2022-09-09T06:19:20;5.90;;;1.95;;
65368;SDS011;51970;53.484;49.488;2022-09-09T06:21:51;6.13;;;2.58;;
65368;SDS011;51970;53.484;49.488;2022-09-09T06:24:22;5.15;;;1.88;;
65368;SDS011;51970;53.484;49.488;2022-09-09T06:26:53;6.22;;;2.85;;
65368;SDS011;51970;53.484;49.488;2022-09-09T06:29:25;6.10;;;2.97;;
65368;SDS011;51970;53.484;49.488;2022-09-09T06:31:56;9.45;;;2.75;;
65368;SDS011;51970;53.484;49.488;2022-09-09T06:34:29;6.70;;;2.20;;
65368;SDS011;51970;53.484;49.488;2022-09-09T06:37:00;6.32;;;1.80;;
65368;SDS011;51970;53.484;49.488;2022-09-09T06:39:32;4.57;;;1.90;;
65368;SDS011;51970;53.484;49.488;2022-09-09T06:42:03;3.95;;;1.73;;
65368;SDS011;51970;53.484;49.488;2022-09-09T06:44:35;4.13;;;1.85;;
65368;SDS011;51970;53.484;49.488;2022-09-09T06:47:06;4.05;;;1.67;;
65368;SDS011;51970;53.484;49.488;2022-09-09T06:49:38;4.60;;;1.92;;
65368;SDS011;51970;53.484;49.488;2022-09-09T06:52:09;3.45;;;1.73;;
65368;SDS011;51970;53.484;49.488;2022-09-09T06:54:40;4.78;;;1.40;;
65368;SDS011;51970;53.484;49.488;2022-09-09T06:57:12;3.10;;;0.85;;
65368;SDS011;51970;53.484;49.488;2022-09-09T06:59:43;7.40;;;1.58;;
65368;SDS011;51970;53.484;49.488;2022-09-09T07:02:15;4.15;;;1.52;;
65368;SDS011;51970;53.484;49.488;2022-09-09T07:04:47;4.82;;;1.25;;
65368;SDS011;51970;53.484;49.488;2022-09-09T07:07:21;7.78;;;2.22;;
65368;SDS011;51970;53.484;49.488;2022-09-09T07:09:54;4.30;;;1.80;;
65368;SDS011;51970;53.484;49.488;2022-09-09T07:12:26;4.35;;;1.58;;
65368;SDS011;51970;53.484;49.488;2022-09-09T07:14:57;5.30;;;2.42;;
65368;SDS011;51970;53.484;49.488;2022-09-09T07:17:28;7.07;;;2.60;;
65368;SDS011;51970;53.484;49.488;2022-09-09T07:20:00;4.28;;;1.70;;
65368;SDS011;51970;53.484;49.488;2022-09-09T07:22:34;4.55;;;1.67;;
65368;SDS011;51970;53.484;49.488;2022-09-09T07:25:06;4.65;;;1.77;;
65368;SDS011;51970;53.484;49.488;2022-09-09T07:27:38;4.22;;;1.75;;
65368;SDS011;51970;53.484;49.488;2022-09-09T07:30:09;4.88;;;1.55;;
65368;SDS011;51970;53.484;49.488;2022-09-09T07:32:41;4.22;;;1.38;;
65368;SDS011;51970;53.484;49.488;2022-09-09T07:35:12;4.47;;;1.95;;
65368;SDS011;51970;53.484;49.488;2022-09-09T07:37:43;4.93;;;2.28;;
65368;SDS011;51970;53.484;49.488;2022-09-09T07:40:15;4.25;;;1.42;;
65368;SDS011;51970;53.484;49.488;2022-09-09T07:42:47;3.88;;;1.58;;
65368;SDS011;51970;53.484;49.488;2022-09-09T07:47:49;4.50;;;1.90;;
65368;SDS011;51970;53.484;49.488;2022-09-09T07:50:21;4.55;;;1.95;;
65368;SDS011;51970;53.484;49.488;2022-09-09T07:52:52;3.95;;;1.52;;
65368;SDS011;51970;53.484;49.488;2022-09-09T07:55:24;6.68;;;1.85;;
65368;SDS011;51970;53.484;49.488;2022-09-09T07:57:56;7.60;;;2.28;;
65368;SDS011;51970;53.484;49.488;2022-09-09T08:00:27;4.45;;;2.45;;
65368;SDS011;51970;53.484;49.488;2022-09-09T08:02:59;5.57;;;1.67;;
65368;SDS011;51970;53.484;49.488;2022-09-09T08:05:31;4.13;;;2.00;;
65368;SDS011;51970;53.484;49.488;2022-09-09T08:08:03;5.97;;;1.75;;
65368;SDS011;51970;53.484;49.488;2022-09-09T08:10:35;4.63;;;2.17;;
65368;SDS011;51970;53.484;49.488;2022-09-09T08:13:06;4.22;;;1.83;;
65368;SDS011;51970;53.484;49.488;2022-09-09T08:15:37;6.80;;;1.45;;
65368;SDS011;51970;53.484;49.488;2022-09-09T08:18:09;4.70;;;2.25;;
65368;SDS011;51970;53.484;49.488;2022-09-09T08:20:40;8.73;;;2.30;;
65368;SDS011;51970;53.484;49.488;2022-09-09T08:23:12;5.15;;;2.08;;
65368;SDS011;51970;53.484;49.488;2022-09-09T08:25:44;4.25;;;1.40;;
65368;SDS011;51970;53.484;49.488;2022-09-09T08:28:16;7.30;;;2.00;;
65368;SDS011;51970;53.484;49.488;2022-09-09T08:30:47;4.47;;;1.67;;
65368;SDS011;51970;53.484;49.488;2022-09-09T08:33:19;5.68;;;1.98;;
65368;SDS011;51970;53.484;49.488;2022-09-09T08:35:51;3.97;;;1.55;;
65368;SDS011;51970;53.484;49.488;2022-09-09T08:38:23;3.13;;;1.45;;
65368;SDS011;51970;53.484;49.488;2022-09-09T08:40:57;6.15;;;1.25;;
65368;SDS011;51970;53.484;49.488;2022-09-09T08:43:37;4.13;;;1.70;;
65368;SDS011;51970;53.484;49.488;2022-09-09T08:46:17;4.90;;;1.60;;
65368;SDS011;51970;53.484;49.488;2022-09-09T08:49:02;4.68;;;2.15;;
65368;SDS011;51970;53.484;49.488;2022-09-09T08:51:54;5.03;;;2.03;;
65368;SDS011;51970;53.484;49.488;2022-09-09T08:54:28;4.70;;;1.98;;
65368;SDS011;51970;53.484;49.488;2022-09-09T08:57:05;4.63;;;1.63;;
65368;SDS011;51970;53.484;49.488;2022-09-09T08:59:45;8.18;;;2.60;;
65368;SDS011;51970;53.484;49.488;2022-09-09T09:02:19;5.03;;;1.33;;
65368;SDS011;51970;53.484;49.488;2022-09-09T09:08:19;4.70;;;2.35;;
65368;SDS011;51970;53.484;49.488;2022-09-09T09:11:03;3.88;;;1.70;;
65368;SDS011;51970;53.484;49.488;2022-09-09T09:18:48;3.05;;;1.55;;
65368;SDS011;51970;53.484;49.488;2022-09-09T09:23:58;3.30;;;1.10;;
65368;SDS011;51970;53.484;49.488;2022-09-09T09:26:32;3.35;;;1.60;;
65368;SDS011;51970;53.484;49.488;2022-09-09T09:29:13;4.20;;;1.20;;
65368;SDS011;51970;53.484;49.488;2022-09-09T09:31:48;5.88;;;1.55;;
65368;SDS011;51970;53.484;49.488;2022-09-09T09:34:25;5.57;;;1.70;;
65368;SDS011;51970;53.484;49.488;2022-09-09T09:36:57;4.00;;;1.63;;
65368;SDS011;51970;53.484;49.488;2022-09-09T09:39:32;2.65;;;1.23;;
65368;SDS011;51970;53.484;49.488;2022-09-09T09:42:10;4.25;;;1.25;;
65368;SDS011;51970;53.484;49.488;2022-09-09T09:44:44;3.85;;;1.50;;
65368;SDS011;51970;53.484;49.488;2022-09-09T09:47:22;4.68;;;2.22;;
65368;SDS011;51970;53.484;49.488;2022-09-09T09:49:58;8.70;;;1.90;;
65368;SDS011;51970;53.484;49.488;2022-09-09T09:52:32;6.90;;;1.40;;
65368;SDS011;51970;53.484;49.488;2022-09-09T09:55:05;3.38;;;1.52;;
65368;SDS011;51970;53.484;49.488;2022-09-09T09:57:44;3.58;;;1.85;;
65368;SDS011;51970;53.484;49.488;2022-09-09T10:00:17;4.47;;;1.20;;
65368;SDS011;51970;53.484;49.488;2022-09-09T10:02:51;2.83;;;1.42;;
65368;SDS011;51970;53.484;49.488;2022-09-09T10:05:26;3.95;;;1.30;;
65368;SDS011;51970;53.484;49.488;2022-09-09T10:08:00;3.80;;;1.55;;
65368;SDS011;51970;53.484;49.488;2022-09-09T10:19:12;3.20;;;1.13;;
65368;SDS011;51970;53.484;49.488;2022-09-09T10:24:49;4.88;;;1.15;;
65368;SDS011;51970;53.484;49.488;2022-09-09T10:28:00;3.22;;;1.23;;
65368;SDS011;51970;53.484;49.488;2022-09-09T10:33:47;3.53;;;1.38;;
65368;SDS011;51970;53.484;49.488;2022-09-09T10:36:25;4.22;;;2.00;;
65368;SDS011;51970;53.484;49.488;2022-09-09T10:38:58;4.90;;;1.77;;
65368;SDS011;51970;53.484;49.488;2022-09-09T10:41:44;3.08;;;1.38;;
65368;SDS011;51970;53.484;49.488;2022-09-09T10:47:24;5.53;;;1.65;;
65368;SDS011;51970;53.484;49.488;2022-09-09T10:53:14;6.05;;;1.58;;
65368;SDS011;51970;53.484;49.488;2022-09-09T10:56:03;4.85;;;2.10;;
65368;SDS011;51970;53.484;49.488;2022-09-09T10:59:04;3.75;;;1.52;;
65368;SDS011;51970;53.484;49.488;2022-09-09T11:01:44;4.80;;;1.60;;
65368;SDS011;51970;53.484;49.488;2022-09-09T11:04:22;3.53;;;1.88;;
65368;SDS011;51970;53.484;49.488;2022-09-09T11:06:58;5.40;;;2.15;;
65368;SDS011;51970;53.484;49.488;2022-09-09T11:09:36;4.00;;;1.95;;
65368;SDS011;51970;53.484;49.488;2022-09-09T11:12:15;4.18;;;1.30;;
65368;SDS011;51970;53.484;49.488;2022-09-09T11:14:55;3.70;;;1.30;;
65368;SDS011;51970;53.484;49.488;2022-09-09T11:17:45;4.18;;;1.77;;
65368;SDS011;51970;53.484;49.488;2022-09-09T11:20:19;3.60;;;1.05;;
65368;SDS011;51970;53.484;49.488;2022-09-09T11:25:36;3.53;;;1.45;;
65368;SDS011;51970;53.484;49.488;2022-09-09T11:28:15;8.68;;;1.77;;
65368;SDS011;51970;53.484;49.488;2022-09-09T11:33:57;8.20;;;1.75;;
65368;SDS011;51970;53.484;49.488;2022-09-09T11:39:50;3.28;;;1.50;;
65368;SDS011;51970;53.484;49.488;2022-09-09T11:42:31;4.55;;;1.75;;
65368;SDS011;51970;53.484;49.488;2022-09-09T11:45:19;4.20;;;2.05;;
65368;SDS011;51970;53.484;49.488;2022-09-09T11:47:55;3.53;;;1.63;;
65368;SDS011;51970;53.484;49.488;2022-09-09T11:50:29;5.00;;;1.83;;
65368;SDS011;51970;53.484;49.488;2022-09-09T11:53:04;3.95;;;1.35;;
65368;SDS011;51970;53.484;49.488;2022-09-09T11:55:59;4.32;;;2.47;;
65368;SDS011;51970;53.484;49.488;2022-09-09T11:58:40;5.75;;;2.20;;
65368;SDS011;51970;53.484;49.488;2022-09-09T12:01:38;7.30;;;1.55;;
65368;SDS011;51970;53.484;49.488;2022-09-09T12:10:05;5.43;;;1.75;;
65368;SDS011;51970;53.484;49.488;2022-09-09T12:12:38;7.78;;;2.28;;
65368;SDS011;51970;53.484;49.488;2022-09-09T12:17:41;3.85;;;1.33;;
65368;SDS011;51970;53.484;49.488;2022-09-09T12:28:40;4.05;;;1.50;;
65368;SDS011;51970;53.484;49.488;2022-09-09T12:37:21;5.38;;;2.40;;
65368;SDS011;51970;53.484;49.488;2022-09-09T12:40:23;4.88;;;1.60;;
65368;SDS011;51970;53.484;49.488;2022-09-09T12:42:59;6.30;;;2.03;;
65368;SDS011;51970;53.484;49.488;2022-09-09T12:45:32;3.45;;;1.63;;
65368;SDS011;51970;53.484;49.488;2022-09-09T12:48:07;3.58;;;1.52;;
65368;SDS011;51970;53.484;49.488;2022-09-09T12:50:49;4.35;;;1.73;;
65368;SDS011;51970;53.484;49.488;2022-09-09T12:53:24;6.57;;;1.27;;
65368;SDS011;51970;53.484;49.488;2022-09-09T12:56:02;3.70;;;1.58;;
65368;SDS011;51970;53.484;49.488;2022-09-09T12:58:38;7.40;;;1.63;;
65368;SDS011;51970;53.484;49.488;2022-09-09T13:01:17;3.63;;;1.40;;
65368;SDS011;51970;53.484;49.488;2022-09-09T13:03:52;3.58;;;1.88;;
65368;SDS011;51970;53.484;49.488;2022-09-09T13:06:24;4.53;;;2.45;;
65368;SDS011;51970;53.484;49.488;2022-09-09T13:09:01;3.38;;;1.25;;
65368;SDS011;51970;53.484;49.488;2022-09-09T13:11:52;8.85;;;2.03;;
65368;SDS011;51970;53.484;49.488;2022-09-09T13:14:31;4.38;;;1.85;;
65368;SDS011;51970;53.484;49.488;2022-09-09T13:17:15;7.20;;;1.73;;
65368;SDS011;51970;53.484;49.488;2022-09-09T13:19:52;4.63;;;1.50;;
65368;SDS011;51970;53.484;49.488;2022-09-09T13:22:34;5.30;;;1.83;;
65368;SDS011;51970;53.484;49.488;2022-09-09T13:27:50;5.32;;;1.50;;
65368;SDS011;51970;53.484;49.488;2022-09-09T13:30:28;4.47;;;1.98;;
65368;SDS011;51970;53.484;49.488;2022-09-09T13:33:21;4.05;;;1.33;;
65368;SDS011;51970;53.484;49.488;2022-09-09T13:35:54;5.57;;;2.70;;
65368;SDS011;51970;53.484;49.488;2022-09-09T13:38:28;6.05;;;2.70;;
65368;SDS011;51970;53.484;49.488;2022-09-09T13:41:04;5.60;;;1.35;;
65368;SDS011;51970;53.484;49.488;2022-09-09T13:43:44;7.13;;;1.80;;
65368;SDS011;51970;53.484;49.488;2022-09-09T13:46:32;5.55;;;2.42;;
65368;SDS011;51970;53.484;49.488;2022-09-09T13:51:42;3.83;;;1.42;;
65368;SDS011;51970;53.484;49.488;2022-09-09T13:54:18;4.57;;;1.50;;
65368;SDS011;51970;53.484;49.488;2022-09-09T13:56:50;3.70;;;1.55;;
65368;SDS011;51970;53.484;49.488;2022-09-09T13:59:22;3.22;;;1.20;;
65368;SDS011;51970;53.484;49.488;2022-09-09T14:01:54;2.20;;;0.90;;
65368;SDS011;51970;53.484;49.488;2022-09-09T14:04:26;3.47;;;1.52;;
65368;SDS011;51970;53.484;49.488;2022-09-09T14:06:58;3.75;;;1.80;;
65368;SDS011;51970;53.484;49.488;2022-09-09T14:09:30;4.15;;;1.80;;
65368;SDS011;51970;53.484;49.488;2022-09-09T14:12:01;4.22;;;1.60;;
65368;SDS011;51970;53.484;49.488;2022-09-09T14:17:04;3.03;;;1.55;;
65368;SDS011;51970;53.484;49.488;2022-09-09T14:19:35;5.07;;;1.75;;
65368;SDS011;51970;53.484;49.488;2022-09-09T14:22:07;5.30;;;1.40;;
65368;SDS011;51970;53.484;49.488;2022-09-09T14:24:38;3.20;;;1.10;;
65368;SDS011;51970;53.484;49.488;2022-09-09T14:27:10;13.95;;;1.63;;
65368;SDS011;51970;53.484;49.488;2022-09-09T14:29:41;6.57;;;1.55;;
65368;SDS011;51970;53.484;49.488;2022-09-09T14:32:14;5.25;;;1.55;;
65368;SDS011;51970;53.484;49.488;2022-09-09T14:34:46;5.78;;;2.13;;
65368;SDS011;51970;53.484;49.488;2022-09-09T14:37:20;5.13;;;2.13;;
65368;SDS011;51970;53.484;49.488;2022-09-09T14:39:51;2.78;;;1.38;;
65368;SDS011;51970;53.484;49.488;2022-09-09T14:42:22;8.80;;;1.52;;
65368;SDS011;51970;53.484;49.488;2022-09-09T14:44:54;6.45;;;2.15;;
65368;SDS011;51970;53.484;49.488;2022-09-09T14:47:25;6.88;;;2.25;;
65368;SDS011;51970;53.484;49.488;2022-09-09T14:49:56;7.60;;;2.20;;
65368;SDS011;51970;53.484;49.488;2022-09-09T14:52:29;7.68;;;1.52;;
65368;SDS011;51970;53.484;49.488;2022-09-09T14:55:01;6.40;;;1.95;;
65368;SDS011;51970;53.484;49.488;2022-09-09T14:57:33;4.18;;;1.67;;
65368;SDS011;51970;53.484;49.488;2022-09-09T15:00:06;6.05;;;1.85;;
65368;SDS011;51970;53.484;49.488;2022-09-09T15:02:39;3.78;;;1.55;;
65368;SDS011;51970;53.484;49.488;2022-09-09T15:07:42;5.72;;;2.35;;
65368;SDS011;51970;53.484;49.488;2022-09-09T15:10:13;3.72;;;1.85;;
65368;SDS011;51970;53.484;49.488;2022-09-09T15:12:44;7.15;;;1.52;;
65368;SDS011;51970;53.484;49.488;2022-09-09T15:15:16;8.32;;;1.40;;
65368;SDS011;51970;53.484;49.488;2022-09-09T15:17:47;3.35;;;1.40;;
65368;SDS011;51970;53.484;49.488;2022-09-09T15:20:19;6.50;;;2.55;;
65368;SDS011;51970;53.484;49.488;2022-09-09T15:22:50;6.07;;;2.35;;
65368;SDS011;51970;53.484;49.488;2022-09-09T15:25:23;19.27;;;5.43;;
65368;SDS011;51970;53.484;49.488;2022-09-09T15:27:54;13.20;;;3.85;;
65368;SDS011;51970;53.484;49.488;2022-09-09T15:30:26;18.58;;;4.63;;
65368;SDS011;51970;53.484;49.488;2022-09-09T15:32:58;17.13;;;6.53;;
65368;SDS011;51970;53.484;49.488;2022-09-09T15:35:29;11.75;;;3.53;;
65368;SDS011;51970;53.484;49.488;2022-09-09T15:38:04;7.30;;;2.85;;
65368;SDS011;51970;53.484;49.488;2022-09-09T15:40:37;11.98;;;4.90;;
65368;SDS011;51970;53.484;49.488;2022-09-09T15:43:10;18.13;;;6.00;;
65368;SDS011;51970;53.484;49.488;2022-09-09T15:45:41;23.40;;;7.57;;
65368;SDS011;51970;53.484;49.488;2022-09-09T15:48:12;19.85;;;6.82;;
65368;SDS011;51970;53.484;49.488;2022-09-09T15:50:43;11.15;;;3.95;;
65368;SDS011;51970;53.484;49.488;2022-09-09T15:53:15;14.07;;;4.82;;
65368;SDS011;51970;53.484;49.488;2022-09-09T15:55:46;16.13;;;6.00;;
65368;SDS011;51970;53.484;49.488;2022-09-09T15:58:17;16.45;;;4.80;;
65368;SDS011;51970;53.484;49.488;2022-09-09T16:00:49;13.18;;;4.25;;
65368;SDS011;51970;53.484;49.488;2022-09-09T16:03:21;9.25;;;3.63;;
65368;SDS011;51970;53.484;49.488;2022-09-09T16:05:53;11.05;;;3.58;;
65368;SDS011;51970;53.484;49.488;2022-09-09T16:08:24;9.18;;;2.92;;
65368;SDS011;51970;53.484;49.488;2022-09-09T16:10:55;10.75;;;4.00;;
65368;SDS011;51970;53.484;49.488;2022-09-09T16:13:27;15.65;;;3.65;;
65368;SDS011;51970;53.484;49.488;2022-09-09T16:15:58;13.98;;;4.68;;
65368;SDS011;51970;53.484;49.488;2022-09-09T16:18:33;18.15;;;6.32;;
65368;SDS011;51970;53.484;49.488;2022-09-09T16:21:11;13.75;;;4.18;;
65368;SDS011;51970;53.484;49.488;2022-09-09T16:23:49;17.42;;;5.32;;
65368;SDS011;51970;53.484;49.488;2022-09-09T16:26:22;19.42;;;6.18;;
65368;SDS011;51970;53.484;49.488;2022-09-09T16:28:53;21.55;;;7.13;;
65368;SDS011;51970;53.484;49.488;2022-09-09T16:31:25;16.02;;;5.43;;
65368;SDS011;51970;53.484;49.488;2022-09-09T16:33:57;24.95;;;7.68;;
65368;SDS011;51970;53.484;49.488;2022-09-09T16:36:30;15.43;;;5.22;;
65368;SDS011;51970;53.484;49.488;2022-09-09T16:39:06;21.30;;;7.07;;
65368;SDS011;51970;53.484;49.488;2022-09-09T16:41:47;20.38;;;7.43;;
65368;SDS011;51970;53.484;49.488;2022-09-09T16:44:19;17.13;;;5.30;;
65368;SDS011;51970;53.484;49.488;2022-09-09T16:46:50;21.80;;;7.63;;
65368;SDS011;51970;53.484;49.488;2022-09-09T16:49:25;18.05;;;5.95;;
65368;SDS011;51970;53.484;49.488;2022-09-09T16:51:59;17.17;;;6.43;;
65368;SDS011;51970;53.484;49.488;2022-09-09T16:54:31;20.67;;;6.97;;
65368;SDS011;51970;53.484;49.488;2022-09-09T16:57:02;19.27;;;6.93;;
65368;SDS011;51970;53.484;49.488;2022-09-09T16:59:33;17.90;;;5.25;;
65368;SDS011;51970;53.484;49.488;2022-09-09T17:02:05;19.27;;;6.10;;
65368;SDS011;51970;53.484;49.488;2022-09-09T17:04:36;14.05;;;5.32;;
65368;SDS011;51970;53.484;49.488;2022-09-09T17:07:07;15.85;;;5.47;;
65368;SDS011;51970;53.484;49.488;2022-09-09T17:09:39;14.40;;;4.97;;
65368;SDS011;51970;53.484;49.488;2022-09-09T17:12:10;20.35;;;5.90;;
65368;SDS011;51970;53.484;49.488;2022-09-09T17:14:42;15.27;;;5.80;;
65368;SDS011;51970;53.484;49.488;2022-09-09T17:17:14;18.15;;;6.45;;
65368;SDS011;51970;53.484;49.488;2022-09-09T17:19:46;10.18;;;2.75;;
65368;SDS011;51970;53.484;49.488;2022-09-09T17:22:17;11.40;;;2.40;;
65368;SDS011;51970;53.484;49.488;2022-09-09T17:24:50;9.70;;;2.15;;
65368;SDS011;51970;53.484;49.488;2022-09-09T17:27:21;8.73;;;2.80;;
65368;SDS011;51970;53.484;49.488;2022-09-09T17:29:52;8.68;;;3.60;;
65368;SDS011;51970;53.484;49.488;2022-09-09T17:32:24;8.65;;;2.65;;
65368;SDS011;51970;53.484;49.488;2022-09-09T17:34:55;6.68;;;2.33;;
65368;SDS011;51970;53.484;49.488;2022-09-09T17:37:26;6.28;;;2.50;;